createdAt,value
2019-05-12T00:00:28.943Z,95472.85
2019-05-12T00:02:59.295Z,95470.84
2019-05-12T00:05:27.969Z,95480.63
2019-05-12T00:07:55.880Z,95480.77
2019-05-12T00:10:24.192Z,95484.61
2019-05-12T00:12:52.543Z,95493.49
2019-05-12T00:15:20.916Z,95489.31
2019-05-12T00:17:49.249Z,95488.66
2019-05-12T00:20:18.094Z,95493.93
2019-05-12T00:25:23.176Z,95499.39
2019-05-12T00:27:51.544Z,95503.52
2019-05-12T00:30:27.297Z,95508.30
2019-05-12T00:32:53.700Z,95511.84
2019-05-12T00:35:22.066Z,95502.00
2019-05-12T00:37:50.416Z,95509.27
2019-05-12T00:40:19.165Z,95505.70
2019-05-12T00:42:48.519Z,95510.89
2019-05-12T00:45:15.573Z,95506.95
2019-05-12T00:47:43.914Z,95509.36
2019-05-12T00:50:12.273Z,95506.35
2019-05-12T00:52:40.611Z,95504.77
2019-05-12T00:55:08.960Z,95505.02
2019-05-12T00:57:38.281Z,95505.27
2019-05-12T01:00:08.740Z,95505.02
2019-05-12T01:02:37.978Z,95506.00
2019-05-12T01:05:05.868Z,95509.58
2019-05-12T01:07:34.208Z,95515.36
2019-05-12T01:10:04.876Z,95518.47
2019-05-12T01:12:30.910Z,95523.77
2019-05-12T01:14:59.249Z,95522.91
2019-05-12T01:17:28.220Z,95527.74
2019-05-12T01:19:58.326Z,95534.15
2019-05-12T01:22:24.272Z,95533.73
2019-05-12T01:24:52.642Z,95537.98
2019-05-12T01:27:20.980Z,95536.41
2019-05-12T01:29:48.940Z,95540.47
2019-05-12T01:32:18.445Z,95541.98
2019-05-12T01:34:48.207Z,95549.03
2019-05-12T01:37:20.869Z,95559.53
2019-05-12T01:39:50.629Z,95561.50
2019-05-12T01:42:18.578Z,95568.46
2019-05-12T01:44:48.175Z,95577.02
2019-05-12T01:47:14.664Z,95578.13
2019-05-12T01:49:44.462Z,95580.91
2019-05-12T01:52:12.387Z,95586.62
2019-05-12T01:54:40.312Z,95586.27
2019-05-12T01:57:08.241Z,95587.97
2019-05-12T01:59:38.146Z,95594.20
2019-05-12T02:02:04.975Z,95600.53
2019-05-12T02:04:38.388Z,95608.53
2019-05-12T02:07:08.277Z,95606.25
2019-05-12T02:09:35.218Z,95617.66
2019-05-12T02:12:03.131Z,95616.42
2019-05-12T02:14:31.054Z,95621.59
2019-05-12T02:16:58.959Z,95624.56
2019-05-12T02:19:28.223Z,95625.54
2019-05-12T02:21:54.783Z,95620.97
2019-05-12T02:24:27.088Z,95625.09
2019-05-12T02:26:50.591Z,95621.65
2019-05-12T02:29:18.517Z,95632.33
2019-05-12T02:31:49.804Z,95635.11
2019-05-12T02:34:15.703Z,95641.90
2019-05-12T02:36:44.782Z,95641.27
2019-05-12T02:39:10.176Z,95653.60
2019-05-12T02:41:38.099Z,95656.95
2019-05-12T02:44:06.034Z,95654.16
2019-05-12T02:46:34.781Z,95650.97
2019-05-12T02:49:04.727Z,95668.09
2019-05-12T02:51:29.752Z,95671.64
2019-05-12T02:53:57.747Z,95672.45
2019-05-12T02:56:26.094Z,95680.16
2019-05-12T02:58:54.354Z,95685.33
2019-05-12T03:01:24.137Z,95684.93
2019-05-12T03:03:49.397Z,95689.67
2019-05-12T03:06:17.309Z,95699.63
2019-05-12T03:08:45.215Z,95703.50
2019-05-12T03:11:14.814Z,95702.16
2019-05-12T03:13:44.767Z,95716.80
2019-05-12T03:16:09.844Z,95715.08
2019-05-12T03:18:37.760Z,95716.85
2019-05-12T03:21:06.064Z,95725.47
2019-05-12T03:23:35.338Z,95732.89
2019-05-12T03:26:05.251Z,95741.45
2019-05-12T03:28:30.373Z,95741.93
2019-05-12T03:30:58.593Z,95750.92
2019-05-12T03:33:33.179Z,95756.78
2019-05-12T03:36:00.190Z,95756.97
2019-05-12T03:38:24.778Z,95760.61
2019-05-12T03:40:54.934Z,95767.89
2019-05-12T03:43:19.793Z,95772.41
2019-05-12T03:45:47.720Z,95776.25
2019-05-12T03:48:15.597Z,95783.73
2019-05-12T03:50:46.140Z,95787.34
2019-05-12T03:53:12.344Z,95792.72
2019-05-12T03:55:42.186Z,95799.06
2019-05-12T03:58:07.240Z,95805.84
2019-05-12T04:00:36.193Z,95813.05
2019-05-12T04:03:04.760Z,95815.20
2019-05-12T04:05:34.538Z,95825.79
2019-05-12T04:07:59.025Z,95829.45
2019-05-12T04:10:26.946Z,95841.28
2019-05-12T04:12:55.004Z,95849.98
2019-05-12T04:15:25.634Z,95846.75
2019-05-12T04:17:50.722Z,95852.75
2019-05-12T04:20:18.645Z,95852.20
2019-05-12T04:22:47.489Z,95861.04
2019-05-12T04:25:15.390Z,95861.30
2019-05-12T04:27:45.110Z,95869.81
2019-05-12T04:30:14.414Z,95870.01
2019-05-12T04:32:40.146Z,95874.42
2019-05-12T04:35:08.060Z,95876.19
2019-05-12T04:37:35.955Z,95887.27
2019-05-12T04:40:05.424Z,95890.84
2019-05-12T04:42:34.680Z,95894.00
2019-05-12T04:44:59.745Z,95908.00
2019-05-12T04:47:27.641Z,95911.84
2019-05-12T04:49:55.544Z,95916.19
2019-05-12T04:52:24.825Z,95928.16
2019-05-12T04:54:51.374Z,95932.72
2019-05-12T04:57:21.226Z,95936.42
2019-05-12T04:59:48.101Z,95939.28
2019-05-12T05:02:16.027Z,95943.23
2019-05-12T05:04:44.198Z,95951.48
2019-05-12T05:07:15.072Z,95957.47
2019-05-12T05:09:40.811Z,95956.36
2019-05-12T05:12:08.742Z,95973.55
2019-05-12T05:14:36.644Z,95969.26
2019-05-12T05:17:05.827Z,95974.27
2019-05-12T05:19:33.747Z,95987.33
2019-05-12T05:22:00.393Z,95990.03
2019-05-12T05:24:28.297Z,95990.98
2019-05-12T05:26:58.108Z,96004.47
2019-05-12T05:29:26.040Z,96002.84
2019-05-12T05:31:55.861Z,96010.52
2019-05-12T05:34:23.798Z,96013.92
2019-05-12T05:36:57.252Z,96018.38
2019-05-12T05:39:24.148Z,96024.63
2019-05-12T05:41:51.177Z,96027.22
2019-05-12T05:44:17.420Z,96028.16
2019-05-12T05:46:49.930Z,96031.03
2019-05-12T05:49:13.425Z,96032.29
2019-05-12T05:51:46.708Z,96041.69
2019-05-12T05:54:09.052Z,96046.31
2019-05-12T05:56:42.403Z,96052.89
2019-05-12T05:59:04.868Z,96055.41
2019-05-12T06:01:34.756Z,96067.63
2019-05-12T06:04:04.422Z,96070.39
2019-05-12T06:06:29.475Z,96069.47
2019-05-12T06:08:57.368Z,96076.70
2019-05-12T06:11:28.391Z,96078.14
2019-05-12T06:13:53.487Z,96085.17
2019-05-12T06:16:24.954Z,96089.91
2019-05-12T06:18:49.918Z,96092.80
2019-05-12T06:21:17.852Z,96101.47
2019-05-12T06:23:45.775Z,96103.78
2019-05-12T06:26:14.178Z,96104.73
2019-05-12T06:28:43.799Z,96108.83
2019-05-12T06:31:09.494Z,96116.34
2019-05-12T06:33:37.383Z,96119.69
2019-05-12T06:36:07.533Z,96120.91
2019-05-12T06:38:38.732Z,96125.05
2019-05-12T06:41:04.084Z,96127.45
2019-05-12T06:43:35.217Z,96131.88
2019-05-12T06:46:03.783Z,96129.52
2019-05-12T06:48:33.218Z,96134.63
2019-05-12T06:50:59.588Z,96129.53
2019-05-12T06:53:30.917Z,96131.38
2019-05-12T06:55:55.451Z,96139.06
2019-05-12T06:58:29.799Z,96142.92
2019-05-12T07:00:51.247Z,96148.47
2019-05-12T07:03:24.218Z,96152.92
2019-05-12T07:05:47.104Z,96156.14
2019-05-12T07:08:20.150Z,96162.37
2019-05-12T07:10:46.902Z,96165.02
2019-05-12T07:13:14.682Z,96169.11
2019-05-12T07:15:40.718Z,96170.15
2019-05-12T07:18:17.225Z,96176.05
2019-05-12T07:20:43.560Z,96179.76
2019-05-12T07:23:10.230Z,96182.58
2019-05-12T07:25:38.153Z,96187.80
2019-05-12T07:28:07.893Z,96192.50
2019-05-12T07:30:35.174Z,96191.77
2019-05-12T07:33:04.574Z,96195.25
2019-05-12T07:35:33.824Z,96197.45
2019-05-12T07:37:59.760Z,96195.72
2019-05-12T07:40:30.064Z,96209.30
2019-05-12T07:42:55.596Z,96209.87
2019-05-12T07:45:25.186Z,96215.96
2019-05-12T07:47:51.467Z,96213.39
2019-05-12T07:50:22.483Z,96222.36
2019-05-12T07:52:47.288Z,96223.97
2019-05-12T07:55:15.232Z,96230.34
2019-05-12T07:57:52.908Z,96226.31
2019-05-12T08:00:20.311Z,96231.52
2019-05-12T08:02:39.047Z,96236.39
2019-05-12T08:05:11.179Z,96233.81
2019-05-12T08:07:34.970Z,96237.50
2019-05-12T08:10:07.180Z,96240.08
2019-05-12T08:12:30.920Z,96242.06
2019-05-12T08:14:59.387Z,96246.02
2019-05-12T08:17:27.744Z,96247.36
2019-05-12T08:19:55.640Z,96249.38
2019-05-12T08:22:29.185Z,96247.23
2019-05-12T08:24:53.750Z,96249.71
2019-05-12T08:27:45.333Z,96257.16
2019-05-12T08:32:45.048Z,96263.34
2019-05-12T08:35:25.514Z,96267.70
2019-05-12T08:37:47.251Z,96271.44
2019-05-12T08:40:15.858Z,96278.73
2019-05-12T08:42:44.776Z,96281.47
2019-05-12T08:45:27.455Z,96284.80
2019-05-12T08:47:45.869Z,96286.11
2019-05-12T08:50:14.277Z,96292.26
2019-05-12T08:52:44.297Z,96288.97
2019-05-12T08:55:13.844Z,96285.38
2019-05-12T08:57:41.553Z,96294.18
2019-05-12T09:02:50.523Z,96304.78
2019-05-12T09:05:15.257Z,96312.50
2019-05-12T09:07:43.694Z,96317.56
2019-05-12T09:12:50.231Z,96325.31
2019-05-12T09:15:18.576Z,96331.41
2019-05-12T09:17:58.599Z,96329.98
2019-05-12T09:20:26.960Z,96335.15
2019-05-12T09:23:00.765Z,96342.64
2019-05-12T09:25:25.033Z,96348.22
2019-05-12T09:27:54.219Z,96347.59
2019-05-12T09:33:04.302Z,96348.83
2019-05-12T09:35:35.020Z,96348.35
2019-05-12T09:38:02.966Z,96356.80
2019-05-12T09:40:29.764Z,96362.78
2019-05-12T09:43:00.283Z,96368.08
2019-05-12T09:45:26.492Z,96369.55
2019-05-12T09:47:58.904Z,96373.06
2019-05-12T09:50:28.697Z,96378.90
2019-05-12T09:53:00.724Z,96379.49
2019-05-12T09:55:25.421Z,96378.78
2019-05-12T09:57:54.412Z,96377.36
2019-05-12T10:00:23.957Z,96384.00
2019-05-12T10:02:51.211Z,96384.52
2019-05-12T10:05:18.856Z,96384.53
2019-05-12T10:07:47.248Z,96389.22
2019-05-12T10:10:15.584Z,96388.72
2019-05-12T10:12:49.190Z,96394.19
2019-05-12T10:15:13.587Z,96392.27
2019-05-12T10:17:43.387Z,96395.38
2019-05-12T10:20:10.017Z,96396.02
2019-05-12T10:22:40.154Z,96402.05
2019-05-12T10:25:08.612Z,96408.76
2019-05-12T10:27:37.919Z,96406.01
2019-05-12T10:30:12.230Z,96408.03
2019-05-12T10:32:35.605Z,96410.18
2019-05-12T10:35:06.781Z,96413.75
2019-05-12T10:37:36.064Z,96409.81
2019-05-12T10:40:07.893Z,96415.31
2019-05-12T10:42:46.273Z,96420.63
2019-05-12T10:45:10.856Z,96414.91
2019-05-12T10:47:38.905Z,96422.78
2019-05-12T10:50:08.210Z,96419.23
2019-05-12T10:52:39.059Z,96418.84
2019-05-12T10:55:07.753Z,96420.94
2019-05-12T10:57:36.128Z,96420.69
2019-05-12T11:00:14.164Z,96423.88
2019-05-12T11:02:40.569Z,96422.39
2019-05-12T11:05:12.384Z,96423.11
2019-05-12T11:12:46.647Z,96423.91
2019-05-12T11:15:16.174Z,96429.56
2019-05-12T11:20:45.779Z,96434.89
2019-05-12T11:23:17.878Z,96437.66
2019-05-12T11:25:47.491Z,96438.31
2019-05-12T11:28:18.943Z,96445.02
2019-05-12T11:30:48.215Z,96451.55
2019-05-12T11:33:16.617Z,96453.07
2019-05-12T11:35:46.898Z,96454.38
2019-05-12T11:38:15.244Z,96450.91
2019-05-12T11:40:44.494Z,96454.47
2019-05-12T11:43:14.502Z,96453.19
2019-05-12T11:45:44.154Z,96454.00
2019-05-12T11:48:10.552Z,96462.81
2019-05-12T11:50:40.364Z,96465.79
2019-05-12T11:58:17.672Z,96467.95
2019-05-12T12:00:50.104Z,96475.00
2019-05-12T12:03:18.893Z,96474.55
2019-05-12T12:05:47.249Z,96476.18
2019-05-12T12:08:18.969Z,96477.58
2019-05-12T12:10:49.135Z,96476.52
2019-05-12T12:13:19.345Z,96484.27
2019-05-12T12:15:45.058Z,96480.73
2019-05-12T12:18:15.508Z,96489.47
2019-05-12T12:20:45.722Z,96490.79
2019-05-12T12:23:14.992Z,96495.84
2019-05-12T12:25:49.111Z,96496.27
2019-05-12T12:28:21.060Z,96497.02
2019-05-12T12:31:00.325Z,96501.84
2019-05-12T12:33:24.304Z,96499.20
2019-05-12T12:35:56.716Z,96498.83
2019-05-12T12:38:20.957Z,96500.19
2019-05-12T12:40:49.438Z,96500.69
2019-05-12T12:43:19.789Z,96505.52
2019-05-12T12:45:50.101Z,96506.97
2019-05-12T12:48:19.195Z,96506.77
2019-05-12T12:50:46.848Z,96507.38
2019-05-12T12:53:15.198Z,96511.67
2019-05-12T12:55:45.184Z,96513.38
2019-05-12T12:58:13.923Z,96513.73
2019-05-12T13:00:47.123Z,96513.28
2019-05-12T13:03:08.694Z,96518.66
2019-05-12T13:05:38.017Z,96517.19
2019-05-12T13:08:07.297Z,96518.16
2019-05-12T13:10:40.466Z,96515.36
2019-05-12T13:13:05.180Z,96521.07
2019-05-12T13:15:34.623Z,96525.36
2019-05-12T13:18:02.960Z,96522.88
2019-05-12T13:20:31.319Z,96527.00
2019-05-12T13:22:59.658Z,96531.00
2019-05-12T13:25:28.141Z,96532.25
2019-05-12T13:27:56.516Z,96531.14
2019-05-12T13:30:26.931Z,96532.48
2019-05-12T13:32:56.172Z,96535.65
2019-05-12T13:35:24.533Z,96532.50
2019-05-12T13:37:56.450Z,96531.34
2019-05-12T13:40:23.398Z,96532.48
2019-05-12T13:42:50.586Z,96532.48
2019-05-12T13:45:19.078Z,96538.36
2019-05-12T13:47:48.324Z,96539.61
2019-05-12T13:50:21.697Z,96535.28
2019-05-12T13:52:47.837Z,96535.71
2019-05-12T13:55:18.365Z,96535.53
2019-05-12T14:00:21.058Z,96546.87
2019-05-12T14:02:55.485Z,96543.52
2019-05-12T14:07:55.451Z,96546.20
2019-05-12T14:12:57.416Z,96553.90
2019-05-12T14:18:00.043Z,96555.31
2019-05-12T14:20:29.321Z,96553.97
2019-05-12T14:22:58.632Z,96558.53
2019-05-12T14:25:32.123Z,96562.15
2019-05-12T14:27:59.397Z,96563.91
2019-05-12T14:30:26.561Z,96563.08
2019-05-12T14:32:59.101Z,96562.36
2019-05-12T14:35:26.156Z,96570.16
2019-05-12T14:37:54.554Z,96574.66
2019-05-12T14:42:59.020Z,96579.81
2019-05-12T14:45:29.860Z,96592.03
2019-05-12T14:47:59.969Z,96585.31
2019-05-12T14:50:25.466Z,96586.69
2019-05-12T14:52:57.816Z,96586.52
2019-05-12T14:55:26.678Z,96581.58
2019-05-12T14:57:55.157Z,96573.73
2019-05-12T15:00:25.489Z,96582.89
2019-05-12T15:02:54.060Z,96580.00
2019-05-12T15:08:00.023Z,96582.26
2019-05-12T15:12:59.998Z,96587.42
2019-05-12T15:15:28.365Z,96589.27
2019-05-12T15:18:03.207Z,96590.70
2019-05-12T15:20:33.034Z,96595.42
2019-05-12T15:25:35.450Z,96588.92
2019-05-12T15:28:03.901Z,96591.81
2019-05-12T15:30:33.570Z,96586.64
2019-05-12T15:32:59.684Z,96590.12
2019-05-12T15:35:28.966Z,96593.18
2019-05-12T15:37:58.308Z,96594.51
2019-05-12T15:40:26.658Z,96594.32
2019-05-12T15:45:34.397Z,96599.27
2019-05-12T15:48:04.166Z,96596.92
2019-05-12T15:50:34.284Z,96603.54
2019-05-12T15:53:03.826Z,96600.34
2019-05-12T15:55:34.503Z,96603.20
2019-05-12T15:58:05.750Z,96603.73
2019-05-12T16:00:34.392Z,96607.05
2019-05-12T16:03:01.825Z,96611.52
2019-05-12T16:05:31.169Z,96613.27
2019-05-12T16:07:59.643Z,96617.81
2019-05-12T16:10:27.983Z,96617.49
2019-05-12T16:12:57.245Z,96618.83
2019-05-12T16:15:25.584Z,96625.39
2019-05-12T16:17:59.433Z,96626.20
2019-05-12T16:20:23.211Z,96630.77
2019-05-12T16:22:53.234Z,96635.31
2019-05-12T16:25:20.681Z,96631.20
2019-05-12T16:27:50.552Z,96629.00
2019-05-12T16:30:20.406Z,96632.19
2019-05-12T16:32:48.117Z,96630.84
2019-05-12T16:35:20.371Z,96628.20
2019-05-12T16:37:44.458Z,96632.94
2019-05-12T16:40:13.665Z,96633.97
2019-05-12T16:42:47.054Z,96638.96
2019-05-12T16:45:11.162Z,96643.25
2019-05-12T16:47:39.519Z,96651.27
2019-05-12T16:50:15.068Z,96658.50
2019-05-12T16:52:40.558Z,96653.73
2019-05-12T16:55:05.480Z,96651.63
2019-05-12T16:57:33.844Z,96654.50
2019-05-12T17:00:06.834Z,96656.13
2019-05-12T17:02:39.514Z,96660.14
2019-05-12T17:05:00.007Z,96653.69
2019-05-12T17:07:29.189Z,96654.87
2019-05-12T17:10:03.086Z,96659.63
2019-05-12T17:12:32.037Z,96659.15
2019-05-12T17:14:55.217Z,96668.80
2019-05-12T17:17:24.651Z,96667.16
2019-05-12T17:19:54.063Z,96670.91
2019-05-12T17:24:58.465Z,96677.39
2019-05-12T17:27:27.428Z,96677.87
2019-05-12T17:29:57.153Z,96677.75
2019-05-12T17:32:25.527Z,96678.93
2019-05-12T17:34:53.873Z,96678.98
2019-05-12T17:37:23.855Z,96680.08
2019-05-12T17:39:51.568Z,96684.50
2019-05-12T17:42:23.968Z,96677.20
2019-05-12T17:44:49.328Z,96684.02
2019-05-12T17:47:21.361Z,96679.13
2019-05-12T17:49:47.887Z,96682.27
2019-05-12T17:54:57.818Z,96693.71
2019-05-12T17:57:20.136Z,96695.02
2019-05-12T17:59:48.116Z,96697.88
2019-05-12T18:02:18.378Z,96702.53
2019-05-12T18:04:49.753Z,96705.78
2019-05-12T18:07:19.372Z,96704.92
2019-05-12T18:09:44.245Z,96706.16
2019-05-12T18:12:13.868Z,96705.93
2019-05-12T18:14:46.843Z,96709.11
2019-05-12T18:17:09.111Z,96716.82
2019-05-12T18:22:14.197Z,96721.56
2019-05-12T18:24:49.373Z,96724.64
2019-05-12T18:27:10.429Z,96720.73
2019-05-12T18:32:17.145Z,96726.88
2019-05-12T18:34:45.523Z,96733.96
2019-05-12T18:39:50.100Z,96740.59
2019-05-12T18:42:19.445Z,96744.77
2019-05-12T18:44:47.812Z,96738.58
2019-05-12T18:47:23.326Z,96748.29
2019-05-12T18:49:47.756Z,96752.23
2019-05-12T18:52:14.566Z,96749.98
2019-05-12T18:54:51.644Z,96756.89
2019-05-12T18:57:10.685Z,96756.11
2019-05-12T19:02:14.746Z,96760.85
2019-05-12T19:04:44.325Z,96761.87
2019-05-12T19:07:15.159Z,96759.42
2019-05-12T19:09:46.457Z,96762.72
2019-05-12T19:12:17.963Z,96764.58
2019-05-12T19:14:40.390Z,96762.89
2019-05-12T19:17:07.628Z,96765.34
2019-05-12T19:19:35.997Z,96765.56
2019-05-12T19:22:09.309Z,96765.66
2019-05-12T19:24:36.006Z,96765.46
2019-05-12T19:27:01.120Z,96762.48
2019-05-12T19:29:34.766Z,96765.12
2019-05-12T19:31:58.230Z,96768.27
2019-05-12T19:34:26.512Z,96774.11
2019-05-12T19:36:55.467Z,96772.82
2019-05-12T19:39:25.416Z,96776.14
2019-05-12T19:41:54.397Z,96778.73
2019-05-12T19:44:26.485Z,96781.15
2019-05-12T19:46:49.802Z,96785.77
2019-05-12T19:49:20.232Z,96782.53
2019-05-12T19:51:47.449Z,96788.58
2019-05-12T19:54:19.415Z,96788.42
2019-05-12T19:56:44.148Z,96791.23
2019-05-12T19:59:14.804Z,96793.66
2019-05-12T20:01:44.524Z,96793.93
2019-05-12T20:04:11.256Z,96801.30
2019-05-12T20:06:39.588Z,96802.30
2019-05-12T20:09:10.759Z,96800.48
2019-05-12T20:14:16.663Z,96809.27
2019-05-12T20:16:43.966Z,96808.28
2019-05-12T20:19:13.401Z,96810.28
2019-05-12T20:21:39.505Z,96807.68
2019-05-12T20:24:07.860Z,96811.51
2019-05-12T20:26:38.259Z,96812.70
2019-05-12T20:29:05.499Z,96817.47
2019-05-12T20:31:35.470Z,96819.11
2019-05-12T20:34:04.209Z,96817.00
2019-05-12T20:36:30.729Z,96825.66
2019-05-12T20:39:00.140Z,96827.32
2019-05-12T20:41:28.512Z,96826.63
2019-05-12T20:43:56.878Z,96825.63
2019-05-12T20:46:26.034Z,96828.34
2019-05-12T20:48:53.887Z,96832.02
2019-05-12T20:51:24.242Z,96831.73
2019-05-12T20:53:50.322Z,96826.43
2019-05-12T20:56:22.040Z,96827.92
2019-05-12T20:58:47.025Z,96826.83
2019-05-12T21:01:20.026Z,96832.13
2019-05-12T21:03:46.348Z,96830.73
2019-05-12T21:06:14.439Z,96833.59
2019-05-12T21:08:46.620Z,96832.55
2019-05-12T21:11:08.827Z,96835.88
2019-05-12T21:13:37.208Z,96831.42
2019-05-12T21:16:16.544Z,96833.28
2019-05-12T21:18:46.517Z,96830.95
2019-05-12T21:21:03.531Z,96835.72
2019-05-12T21:23:30.652Z,96830.58
2019-05-12T21:25:59.016Z,96838.06
2019-05-12T21:31:05.655Z,96837.51
2019-05-12T21:33:39.914Z,96844.03
2019-05-12T21:36:04.445Z,96847.13
2019-05-12T21:38:34.078Z,96847.70
2019-05-12T21:41:02.084Z,96840.08
2019-05-12T21:43:29.780Z,96843.41
2019-05-12T21:46:01.181Z,96846.00
2019-05-12T21:48:29.184Z,96843.15
2019-05-12T21:50:55.548Z,96847.75
2019-05-12T21:53:23.812Z,96852.38
2019-05-12T21:55:55.271Z,96857.07
2019-05-12T21:58:19.919Z,96864.69
2019-05-12T22:00:50.496Z,96865.47
2019-05-12T22:03:16.632Z,96866.27
2019-05-12T22:05:51.472Z,96867.29
2019-05-12T22:08:20.640Z,96870.15
2019-05-12T22:10:43.565Z,96872.47
2019-05-12T22:13:14.681Z,96875.06
2019-05-12T22:15:39.303Z,96876.03
2019-05-12T22:18:07.811Z,96876.41
2019-05-12T22:20:37.088Z,96873.02
2019-05-12T22:23:11.886Z,96877.20
2019-05-12T22:25:36.919Z,96874.11
2019-05-12T22:28:09.957Z,96875.02
2019-05-12T22:30:35.481Z,96873.45
2019-05-12T22:33:08.281Z,96873.05
2019-05-12T22:35:33.617Z,96872.20
2019-05-12T22:38:03.919Z,96869.02
2019-05-12T22:40:29.987Z,96865.16
2019-05-12T22:43:01.278Z,96863.52
2019-05-12T22:45:26.680Z,96864.42
2019-05-12T22:47:58.963Z,96866.16
2019-05-12T22:52:58.582Z,96865.76
2019-05-12T22:55:32.398Z,96870.27
2019-05-12T22:57:55.294Z,96866.82
2019-05-12T23:00:24.355Z,96866.95
2019-05-12T23:02:53.685Z,96869.47
2019-05-12T23:05:20.720Z,96867.51
2019-05-12T23:07:48.784Z,96866.19
2019-05-12T23:10:17.145Z,96871.15
2019-05-12T23:12:50.325Z,96871.09
2019-05-12T23:15:14.849Z,96869.53
2019-05-12T23:17:45.268Z,96869.49
2019-05-12T23:20:13.535Z,96869.96
2019-05-12T23:22:39.921Z,96870.00
2019-05-12T23:25:11.544Z,96870.43
2019-05-12T23:27:37.540Z,96874.44
2019-05-12T23:30:10.864Z,96871.32
2019-05-12T23:32:35.220Z,96875.76
2019-05-12T23:35:03.898Z,96870.44
2019-05-12T23:37:38.371Z,96869.00
2019-05-12T23:40:01.234Z,96867.52
2019-05-12T23:42:29.571Z,96864.06
2019-05-12T23:44:58.921Z,96867.39
2019-05-12T23:47:27.279Z,96863.20
2019-05-12T23:49:55.640Z,96866.57
2019-05-12T23:52:24.140Z,96869.17
2019-05-12T23:54:53.285Z,96855.40
2019-05-12T23:57:21.626Z,96851.55
2019-05-12T23:59:49.976Z,96851.79
